createdAt,value
2023-02-07T00:01:29.972Z,102357.25
2023-02-07T00:03:58.760Z,102362.50
2023-02-07T00:06:30.472Z,102371.19
2023-02-07T00:09:00.333Z,102369.69
2023-02-07T00:11:28.070Z,102356.94
2023-02-07T00:13:58.806Z,102357.59
2023-02-07T00:16:26.462Z,102339.38
2023-02-07T00:18:55.206Z,102338.94
2023-02-07T00:21:24.993Z,102339.56
2023-02-07T00:23:53.421Z,102345.75
2023-02-07T00:26:23.796Z,102346.59
2023-02-07T00:28:52.637Z,102343.09
2023-02-07T00:31:30.030Z,102335.50
2023-02-07T00:34:00.697Z,102354.59
2023-02-07T00:36:31.390Z,102358.34
2023-02-07T00:39:00.855Z,102357.47
2023-02-07T00:41:28.482Z,102349.00
2023-02-07T00:43:55.937Z,102348.44
2023-02-07T00:46:23.155Z,102362.09
2023-02-07T00:48:51.009Z,102352.94
2023-02-07T00:51:18.389Z,102357.19
2023-02-07T00:53:45.756Z,102348.53
2023-02-07T00:56:14.137Z,102346.00
2023-02-07T00:58:41.664Z,102349.38
2023-02-07T01:01:09.071Z,102352.81
2023-02-07T01:03:36.058Z,102353.41
2023-02-07T01:06:03.132Z,102345.84
2023-02-07T01:08:30.212Z,102347.38
2023-02-07T01:10:57.331Z,102348.88
2023-02-07T01:13:24.332Z,102353.72
2023-02-07T01:15:51.478Z,102357.13
2023-02-07T01:18:18.496Z,102347.69
2023-02-07T01:20:45.718Z,102350.97
2023-02-07T01:23:14.873Z,102358.97
2023-02-07T01:25:44.151Z,102365.19
2023-02-07T01:28:12.278Z,102358.13
2023-02-07T01:30:41.643Z,102357.22
2023-02-07T01:33:09.435Z,102352.13
2023-02-07T01:35:38.839Z,102347.59
2023-02-07T01:38:06.038Z,102337.06
2023-02-07T01:40:38.139Z,102338.94
2023-02-07T01:43:05.086Z,102332.63
2023-02-07T01:45:39.571Z,102327.72
2023-02-07T01:48:32.813Z,102319.09
2023-02-07T01:51:04.335Z,102322.56
2023-02-07T01:53:33.637Z,102322.72
2023-02-07T01:56:04.858Z,102342.38
2023-02-07T01:58:34.214Z,102336.56
2023-02-07T02:01:11.281Z,102328.75
2023-02-07T02:03:45.202Z,102303.91
2023-02-07T02:06:13.822Z,102309.06
2023-02-07T02:08:41.165Z,102313.28
2023-02-07T02:11:19.921Z,102304.19
2023-02-07T02:14:08.849Z,102302.50
2023-02-07T02:16:44.828Z,102308.31
2023-02-07T02:19:20.174Z,102318.63
2023-02-07T02:22:33.058Z,102327.31
2023-02-07T02:25:02.623Z,102329.78
2023-02-07T02:27:41.206Z,102341.19
2023-02-07T02:31:11.087Z,102343.56
2023-02-07T02:34:17.264Z,102346.31
2023-02-07T02:37:12.796Z,102345.16
2023-02-07T02:40:05.217Z,102360.75
2023-02-07T02:42:44.301Z,102369.13
2023-02-07T02:45:19.475Z,102363.16
2023-02-07T02:47:50.004Z,102361.38
2023-02-07T02:50:29.829Z,102361.28
2023-02-07T02:52:56.918Z,102357.91
2023-02-07T02:56:08.779Z,102354.75
2023-02-07T02:59:17.165Z,102360.75
2023-02-07T03:01:54.567Z,102362.47
2023-02-07T03:05:08.322Z,102357.28
2023-02-07T03:07:43.893Z,102356.38
2023-02-07T03:10:32.957Z,102353.03
2023-02-07T03:13:32.149Z,102362.63
2023-02-07T03:16:13.743Z,102349.06
2023-02-07T03:18:55.188Z,102339.59
2023-02-07T03:21:33.046Z,102341.22
2023-02-07T03:24:06.379Z,102344.81
2023-02-07T03:26:34.720Z,102352.44
2023-02-07T03:29:03.196Z,102344.91
2023-02-07T03:31:32.645Z,102356.06
2023-02-07T03:34:09.940Z,102339.84
2023-02-07T03:37:15.053Z,102342.56
2023-02-07T03:39:42.187Z,102355.59
2023-02-07T03:42:33.313Z,102349.34
2023-02-07T03:45:02.076Z,102358.81
2023-02-07T03:47:29.944Z,102360.50
2023-02-07T03:49:56.993Z,102356.31
2023-02-07T03:52:23.981Z,102365.63
2023-02-07T03:54:50.909Z,102365.59
2023-02-07T03:57:17.920Z,102369.00
2023-02-07T03:59:44.881Z,102371.63
2023-02-07T04:02:12.043Z,102373.34
2023-02-07T04:04:40.277Z,102378.47
2023-02-07T04:07:07.273Z,102371.44
2023-02-07T04:09:34.225Z,102372.47
2023-02-07T04:12:01.792Z,102375.19
2023-02-07T04:14:29.016Z,102372.47
2023-02-07T04:16:55.915Z,102370.03
2023-02-07T04:19:23.151Z,102370.16
2023-02-07T04:21:50.161Z,102376.50
2023-02-07T04:24:17.261Z,102368.19
2023-02-07T04:26:44.245Z,102376.84
2023-02-07T04:29:11.199Z,102376.22
2023-02-07T04:31:38.277Z,102370.19
2023-02-07T04:34:06.016Z,102360.00
2023-02-07T04:36:33.032Z,102358.44
2023-02-07T04:38:59.990Z,102365.16
2023-02-07T04:41:26.886Z,102364.03
2023-02-07T04:43:53.825Z,102368.25
2023-02-07T04:46:21.041Z,102369.31
2023-02-07T04:48:50.620Z,102377.44
2023-02-07T04:51:17.604Z,102377.56
2023-02-07T04:53:44.608Z,102386.84
2023-02-07T04:56:11.779Z,102387.94
2023-02-07T04:58:38.838Z,102402.75
2023-02-07T05:01:06.078Z,102398.47
2023-02-07T05:03:33.137Z,102401.78
2023-02-07T05:06:00.314Z,102397.50
2023-02-07T05:08:27.259Z,102391.50
2023-02-07T05:10:55.355Z,102400.84
2023-02-07T05:13:23.505Z,102404.81
2023-02-07T05:15:51.406Z,102383.78
2023-02-07T05:18:18.949Z,102383.78
2023-02-07T05:20:45.891Z,102394.13
2023-02-07T05:23:13.016Z,102387.22
2023-02-07T05:25:42.946Z,102391.56
2023-02-07T05:28:10.430Z,102384.63
2023-02-07T05:30:37.420Z,102390.22
2023-02-07T05:33:07.065Z,102385.25
2023-02-07T05:35:43.843Z,102385.94
2023-02-07T05:38:14.494Z,102389.59
2023-02-07T05:40:42.801Z,102388.78
2023-02-07T05:43:12.742Z,102384.56
2023-02-07T05:45:40.914Z,102383.00
2023-02-07T05:48:08.431Z,102397.56
2023-02-07T05:50:35.629Z,102400.19
2023-02-07T05:53:03.181Z,102409.50
2023-02-07T05:55:30.178Z,102411.31
2023-02-07T05:57:57.445Z,102406.19
2023-02-07T06:00:24.827Z,102403.69
2023-02-07T06:02:51.992Z,102425.00
2023-02-07T06:05:23.748Z,102425.91
2023-02-07T06:07:52.048Z,102419.97
2023-02-07T06:10:19.608Z,102423.31
2023-02-07T06:12:46.628Z,102420.78
2023-02-07T06:15:13.817Z,102415.59
2023-02-07T06:17:40.722Z,102424.19
2023-02-07T06:20:08.462Z,102420.78
2023-02-07T06:22:35.422Z,102422.53
2023-02-07T06:25:02.397Z,102424.19
2023-02-07T06:27:29.555Z,102433.53
2023-02-07T06:29:56.489Z,102430.22
2023-02-07T06:32:23.372Z,102439.56
2023-02-07T06:34:50.235Z,102426.78
2023-02-07T06:37:17.183Z,102418.31
2023-02-07T06:39:44.133Z,102415.69
2023-02-07T06:42:11.107Z,102422.53
2023-02-07T06:44:38.050Z,102414.00
2023-02-07T06:47:05.480Z,102419.19
2023-02-07T06:49:32.522Z,102422.56
2023-02-07T06:51:59.401Z,102424.19
2023-02-07T06:54:26.436Z,102425.91
2023-02-07T06:56:53.334Z,102431.97
2023-02-07T06:59:20.251Z,102430.16
2023-02-07T07:01:49.379Z,102446.31
2023-02-07T07:04:18.329Z,102429.34
2023-02-07T07:06:45.272Z,102436.94
2023-02-07T07:09:12.749Z,102438.53
2023-02-07T07:11:43.131Z,102441.06
2023-02-07T07:14:11.788Z,102441.88
2023-02-07T07:16:40.826Z,102437.56
2023-02-07T07:19:07.741Z,102439.34
2023-02-07T07:21:35.491Z,102440.16
2023-02-07T07:24:02.384Z,102430.75
2023-02-07T07:26:36.652Z,102429.84
2023-02-07T07:29:14.805Z,102432.34
2023-02-07T07:31:41.981Z,102436.53
2023-02-07T07:34:09.104Z,102424.69
2023-02-07T07:36:36.172Z,102445.03
2023-02-07T07:39:03.580Z,102444.22
2023-02-07T07:41:30.728Z,102452.72
2023-02-07T07:43:58.641Z,102441.59
2023-02-07T07:46:25.872Z,102444.22
2023-02-07T07:48:52.925Z,102452.59
2023-02-07T07:51:20.120Z,102445.78
2023-02-07T07:53:47.026Z,102444.84
2023-02-07T07:56:14.106Z,102432.06
2023-02-07T07:58:42.086Z,102440.59
2023-02-07T08:01:09.110Z,102432.84
2023-02-07T08:03:37.097Z,102433.66
2023-02-07T08:06:04.194Z,102439.56
2023-02-07T08:08:31.345Z,102432.66
2023-02-07T08:11:02.690Z,102438.66
2023-02-07T08:13:32.414Z,102441.22
2023-02-07T08:16:01.043Z,102442.91
2023-02-07T08:18:29.080Z,102441.97
2023-02-07T08:20:56.655Z,102456.41
2023-02-07T08:23:23.727Z,102441.97
2023-02-07T08:25:50.987Z,102443.63
2023-02-07T08:28:19.501Z,102448.78
2023-02-07T08:30:49.802Z,102447.75
2023-02-07T08:33:17.411Z,102464.00
2023-02-07T08:35:45.103Z,102460.63
2023-02-07T08:38:13.253Z,102458.84
2023-02-07T08:40:40.569Z,102451.19
2023-02-07T08:43:12.392Z,102462.13
2023-02-07T08:45:41.357Z,102467.19
2023-02-07T08:48:09.003Z,102471.50
2023-02-07T08:50:35.959Z,102463.00
2023-02-07T08:53:03.009Z,102453.38
2023-02-07T08:55:30.744Z,102459.25
2023-02-07T08:57:57.774Z,102448.19
2023-02-07T09:00:24.943Z,102455.75
2023-02-07T09:02:51.906Z,102451.56
2023-02-07T09:05:19.098Z,102465.94
2023-02-07T09:07:46.133Z,102466.84
2023-02-07T09:10:13.244Z,102466.78
2023-02-07T09:12:40.425Z,102462.41
2023-02-07T09:15:08.016Z,102464.13
2023-02-07T09:17:35.072Z,102464.00
2023-02-07T09:20:02.127Z,102453.78
2023-02-07T09:22:31.631Z,102447.75
2023-02-07T09:24:59.275Z,102439.81
2023-02-07T09:27:26.368Z,102437.47
2023-02-07T09:29:53.229Z,102439.72
2023-02-07T09:32:20.260Z,102432.72
2023-02-07T09:34:47.435Z,102425.94
2023-02-07T09:37:14.417Z,102436.91
2023-02-07T09:39:44.500Z,102426.84
2023-02-07T09:42:43.708Z,102425.63
2023-02-07T09:45:17.241Z,102417.81
2023-02-07T09:47:50.085Z,102431.34
2023-02-07T09:50:31.928Z,102429.78
2023-02-07T09:53:15.577Z,102423.75
2023-02-07T09:56:04.745Z,102424.56
2023-02-07T09:58:47.649Z,102418.97
2023-02-07T10:01:22.832Z,102413.16
2023-02-07T10:04:15.757Z,102412.19
2023-02-07T10:06:47.829Z,102399.16
2023-02-07T10:09:18.896Z,102393.09
2023-02-07T10:12:11.346Z,102402.00
2023-02-07T10:14:57.642Z,102404.19
2023-02-07T10:17:35.439Z,102398.84
2023-02-07T10:20:19.053Z,102396.22
2023-02-07T10:23:25.808Z,102384.81
2023-02-07T10:26:37.925Z,102381.56
2023-02-07T10:29:17.634Z,102394.13
2023-02-07T10:31:51.928Z,102391.56
2023-02-07T10:34:23.887Z,102396.47
2023-02-07T10:36:56.342Z,102394.94
2023-02-07T10:39:36.171Z,102378.75
2023-02-07T10:42:03.159Z,102384.41
2023-02-07T10:44:30.376Z,102387.75
2023-02-07T10:47:07.674Z,102391.66
2023-02-07T10:49:37.713Z,102380.78
2023-02-07T10:52:25.820Z,102373.66
2023-02-07T10:55:00.146Z,102383.28
2023-02-07T10:57:29.644Z,102387.66
2023-02-07T11:00:04.213Z,102378.88
2023-02-07T11:02:33.951Z,102378.16
2023-02-07T11:05:15.414Z,102372.16
2023-02-07T11:08:14.974Z,102364.94
2023-02-07T11:10:45.204Z,102365.75
2023-02-07T11:13:46.164Z,102357.94
2023-02-07T11:16:17.843Z,102341.91
2023-02-07T11:18:59.324Z,102346.66
2023-02-07T11:21:34.072Z,102353.75
2023-02-07T11:24:25.208Z,102347.19
2023-02-07T11:27:18.757Z,102346.44
2023-02-07T11:29:53.889Z,102356.47
2023-02-07T11:32:24.511Z,102345.81
2023-02-07T11:34:58.670Z,102360.78
2023-02-07T11:37:33.110Z,102351.03
2023-02-07T11:40:26.964Z,102350.13
2023-02-07T11:43:35.368Z,102347.69
2023-02-07T11:46:09.692Z,102337.31
2023-02-07T11:48:40.162Z,102344.47
2023-02-07T11:51:15.968Z,102339.69
2023-02-07T11:54:03.248Z,102335.31
2023-02-07T11:56:39.800Z,102334.56
2023-02-07T11:59:15.445Z,102332.59
2023-02-07T12:01:45.118Z,102332.25
2023-02-07T12:04:24.950Z,102323.78
2023-02-07T12:06:59.201Z,102325.69
2023-02-07T12:09:38.001Z,102328.88
2023-02-07T12:12:16.101Z,102333.56
2023-02-07T12:15:00.719Z,102346.84
2023-02-07T12:17:40.244Z,102337.06
2023-02-07T12:20:28.091Z,102344.53
2023-02-07T12:23:34.496Z,102340.38
2023-02-07T12:25:58.545Z,102346.38
2023-02-07T12:29:11.077Z,102335.59
2023-02-07T12:31:57.676Z,102336.19
2023-02-07T12:35:04.953Z,102332.72
2023-02-07T12:37:42.650Z,102331.59
2023-02-07T12:40:12.577Z,102322.31
2023-02-07T12:43:02.710Z,102321.19
2023-02-07T12:46:01.871Z,102320.66
2023-02-07T12:48:37.646Z,102310.50
2023-02-07T12:51:11.499Z,102293.94
2023-02-07T12:54:13.778Z,102301.00
2023-02-07T12:57:08.833Z,102306.19
2023-02-07T13:00:04.009Z,102281.19
2023-02-07T13:03:11.143Z,102277.94
2023-02-07T13:05:50.313Z,102277.00
2023-02-07T13:08:35.215Z,102267.69
2023-02-07T13:11:13.973Z,102259.06
2023-02-07T13:14:16.098Z,102263.66
2023-02-07T13:17:26.598Z,102262.53
2023-02-07T13:20:13.308Z,102259.69
2023-02-07T13:22:59.262Z,102265.44
2023-02-07T13:25:42.628Z,102246.53
2023-02-07T13:28:26.542Z,102243.06
2023-02-07T13:30:55.004Z,102236.88
2023-02-07T13:33:33.452Z,102247.50
2023-02-07T13:36:37.432Z,102249.50
2023-02-07T13:39:30.945Z,102242.34
2023-02-07T13:42:32.486Z,102241.59
2023-02-07T13:45:12.236Z,102243.63
2023-02-07T13:48:04.077Z,102240.16
2023-02-07T13:51:19.169Z,102243.97
2023-02-07T13:54:30.921Z,102243.53
2023-02-07T13:57:19.724Z,102246.31
2023-02-07T14:00:12.879Z,102244.78
2023-02-07T14:03:01.467Z,102236.41
2023-02-07T14:05:40.133Z,102235.69
2023-02-07T14:08:24.857Z,102230.84
2023-02-07T14:10:56.679Z,102220.06
2023-02-07T14:13:34.989Z,102228.56
2023-02-07T14:16:07.781Z,102217.44
2023-02-07T14:18:51.865Z,102211.50
2023-02-07T14:21:18.950Z,102209.56
2023-02-07T14:24:10.390Z,102214.13
2023-02-07T14:26:40.313Z,102208.75
2023-02-07T14:29:51.384Z,102210.59
2023-02-07T14:32:18.235Z,102207.00
2023-02-07T14:35:27.601Z,102214.25
2023-02-07T14:38:13.566Z,102221.06
2023-02-07T14:40:43.490Z,102199.94
2023-02-07T14:43:13.110Z,102215.81
2023-02-07T14:45:52.098Z,102218.59
2023-02-07T14:48:49.975Z,102213.78
2023-02-07T14:51:47.496Z,102214.44
2023-02-07T14:54:42.996Z,102212.56
2023-02-07T14:57:24.676Z,102211.38
2023-02-07T15:00:14.632Z,102213.06
2023-02-07T15:02:58.453Z,102214.81
2023-02-07T15:05:32.898Z,102212.19
2023-02-07T15:08:02.835Z,102211.31
2023-02-07T15:10:36.214Z,102212.47
2023-02-07T15:13:35.348Z,102211.50
2023-02-07T15:16:14.551Z,102213.75
2023-02-07T15:19:25.545Z,102228.09
2023-02-07T15:21:52.871Z,102212.66
2023-02-07T15:24:51.445Z,102223.38
2023-02-07T15:27:23.325Z,102223.94
2023-02-07T15:30:02.827Z,102240.50
2023-02-07T15:32:42.033Z,102238.88
2023-02-07T15:35:22.434Z,102237.31
2023-02-07T15:37:50.324Z,102231.44
2023-02-07T15:40:24.935Z,102254.09
2023-02-07T15:42:58.974Z,102255.38
2023-02-07T15:45:31.083Z,102248.69
2023-02-07T15:48:09.424Z,102261.50
2023-02-07T15:50:38.125Z,102256.69
2023-02-07T15:53:08.648Z,102265.84
2023-02-07T15:55:46.891Z,102263.50
2023-02-07T15:58:26.204Z,102270.66
2023-02-07T16:01:01.353Z,102278.50
2023-02-07T16:03:37.780Z,102271.09
2023-02-07T16:06:11.084Z,102287.72
2023-02-07T16:08:42.698Z,102284.75
2023-02-07T16:11:27.856Z,102294.63
2023-02-07T16:14:19.996Z,102295.81
2023-02-07T16:16:57.097Z,102307.41
2023-02-07T16:19:32.449Z,102311.00
2023-02-07T16:22:10.202Z,102318.22
2023-02-07T16:24:40.896Z,102316.66
2023-02-07T16:27:10.086Z,102329.56
2023-02-07T16:29:37.692Z,102329.16
2023-02-07T16:32:05.040Z,102333.22
2023-02-07T16:34:33.040Z,102337.81
2023-02-07T16:37:00.085Z,102337.47
2023-02-07T16:39:27.041Z,102337.94
2023-02-07T16:42:05.355Z,102346.94
2023-02-07T16:44:35.107Z,102335.19
2023-02-07T16:47:02.107Z,102336.03
2023-02-07T16:49:31.982Z,102350.38
2023-02-07T16:52:00.578Z,102348.69
2023-02-07T16:54:27.620Z,102352.56
2023-02-07T16:56:57.926Z,102356.94
2023-02-07T16:59:25.741Z,102348.13
2023-02-07T17:01:54.119Z,102353.97
2023-02-07T17:04:22.052Z,102358.56
2023-02-07T17:06:49.704Z,102352.81
2023-02-07T17:09:24.089Z,102354.72
2023-02-07T17:11:53.037Z,102366.66
2023-02-07T17:14:21.042Z,102364.03
2023-02-07T17:16:48.617Z,102365.13
2023-02-07T17:19:27.939Z,102367.34
2023-02-07T17:21:56.653Z,102368.16
2023-02-07T17:24:23.723Z,102373.97
2023-02-07T17:26:54.482Z,102372.59
2023-02-07T17:29:22.137Z,102371.66
2023-02-07T17:31:49.686Z,102383.00
2023-02-07T17:34:17.011Z,102391.06
2023-02-07T17:36:48.617Z,102398.00
2023-02-07T17:39:17.668Z,102400.50
2023-02-07T17:41:45.000Z,102408.38
2023-02-07T17:44:11.923Z,102399.50
2023-02-07T17:46:38.963Z,102389.97
2023-02-07T17:49:13.733Z,102377.56
2023-02-07T17:51:40.658Z,102385.38
2023-02-07T17:54:07.670Z,102385.13
2023-02-07T17:56:35.033Z,102377.94
2023-02-07T17:59:05.956Z,102368.13
2023-02-07T18:01:33.906Z,102367.28
2023-02-07T18:04:02.499Z,102366.63
2023-02-07T18:06:30.368Z,102367.16
2023-02-07T18:09:00.859Z,102366.66
2023-02-07T18:11:28.724Z,102360.75
2023-02-07T18:13:57.197Z,102375.56
2023-02-07T18:16:26.696Z,102382.56
2023-02-07T18:18:56.521Z,102384.13
2023-02-07T18:21:24.110Z,102384.28
2023-02-07T18:23:53.289Z,102382.25
2023-02-07T18:26:20.405Z,102385.97
2023-02-07T18:28:47.382Z,102393.91
2023-02-07T18:31:22.785Z,102405.13
2023-02-07T18:33:51.658Z,102410.63
2023-02-07T18:36:23.481Z,102401.94
2023-02-07T18:38:50.913Z,102398.63
2023-02-07T18:41:23.050Z,102412.06
2023-02-07T18:43:50.474Z,102417.63
2023-02-07T18:46:20.246Z,102415.75
2023-02-07T18:48:51.109Z,102421.53
2023-02-07T18:51:19.478Z,102417.28
2023-02-07T18:53:47.101Z,102417.50
2023-02-07T18:56:20.778Z,102422.47
2023-02-07T18:58:48.048Z,102418.84
2023-02-07T19:01:20.348Z,102414.91
2023-02-07T19:03:54.114Z,102412.50
2023-02-07T19:06:28.820Z,102413.56
2023-02-07T19:08:57.818Z,102421.13
2023-02-07T19:11:25.006Z,102431.13
2023-02-07T19:13:52.070Z,102423.22
2023-02-07T19:16:23.624Z,102424.13
2023-02-07T19:18:50.866Z,102415.94
2023-02-07T19:21:23.739Z,102423.41
2023-02-07T19:23:51.160Z,102422.63
2023-02-07T19:26:18.169Z,102426.91
2023-02-07T19:28:46.466Z,102429.44
2023-02-07T19:31:18.222Z,102438.31
2023-02-07T19:33:50.600Z,102436.50
2023-02-07T19:36:18.972Z,102432.34
2023-02-07T19:38:48.578Z,102446.81
2023-02-07T19:41:19.203Z,102446.97
2023-02-07T19:43:46.437Z,102447.09
2023-02-07T19:46:13.516Z,102460.06
2023-02-07T19:48:40.470Z,102464.88
2023-02-07T19:51:10.997Z,102451.16
2023-02-07T19:53:38.295Z,102460.03
2023-02-07T19:56:11.343Z,102467.72
2023-02-07T19:58:45.009Z,102464.88
2023-02-07T20:01:12.869Z,102471.06
2023-02-07T20:03:41.327Z,102477.00
2023-02-07T20:06:12.273Z,102477.63
2023-02-07T20:08:41.022Z,102468.16
2023-02-07T20:11:12.142Z,102470.66
2023-02-07T20:13:42.873Z,102462.19
2023-02-07T20:16:14.052Z,102460.47
2023-02-07T20:18:41.444Z,102461.56
2023-02-07T20:21:14.296Z,102478.81
2023-02-07T20:23:44.177Z,102462.75
2023-02-07T20:26:21.851Z,102457.25
2023-02-07T20:28:50.154Z,102449.84
2023-02-07T20:31:21.627Z,102440.44
2023-02-07T20:33:48.680Z,102447.53
2023-02-07T20:36:17.536Z,102452.47
2023-02-07T20:38:46.013Z,102447.03
2023-02-07T20:41:29.485Z,102442.81
2023-02-07T20:44:04.913Z,102446.38
2023-02-07T20:46:35.861Z,102451.41
2023-02-07T20:49:11.203Z,102447.22
2023-02-07T20:51:38.766Z,102450.34
2023-02-07T20:54:07.150Z,102455.53
2023-02-07T20:56:34.940Z,102461.34
2023-02-07T20:59:01.926Z,102469.94
2023-02-07T21:01:32.683Z,102472.47
2023-02-07T21:04:03.345Z,102473.34
2023-02-07T21:06:31.191Z,102465.09
2023-02-07T21:09:02.107Z,102458.41
2023-02-07T21:11:36.324Z,102464.13
2023-02-07T21:14:05.400Z,102473.59
2023-02-07T21:16:33.191Z,102474.50
2023-02-07T21:19:01.360Z,102479.53
2023-02-07T21:21:29.218Z,102477.31
2023-02-07T21:23:57.516Z,102485.84
2023-02-07T21:26:26.621Z,102479.31
2023-02-07T21:29:01.210Z,102482.53
2023-02-07T21:31:29.790Z,102475.63
2023-02-07T21:33:57.339Z,102477.31
2023-02-07T21:36:30.509Z,102471.97
2023-02-07T21:39:02.773Z,102455.81
2023-02-07T21:41:30.616Z,102455.09
2023-02-07T21:43:59.236Z,102457.78
2023-02-07T21:46:34.287Z,102459.59
2023-02-07T21:49:08.627Z,102450.28
2023-02-07T21:51:36.390Z,102458.88
2023-02-07T21:54:07.471Z,102457.84
2023-02-07T21:56:38.376Z,102463.28
2023-02-07T21:59:15.562Z,102473.63
2023-02-07T22:01:44.013Z,102480.47
2023-02-07T22:04:11.917Z,102478.59
2023-02-07T22:06:42.203Z,102478.50
2023-02-07T22:09:13.257Z,102482.91
2023-02-07T22:11:40.271Z,102494.06
2023-02-07T22:14:07.654Z,102482.22
2023-02-07T22:16:35.080Z,102487.22
2023-02-07T22:19:04.722Z,102477.00
2023-02-07T22:21:35.214Z,102460.72
2023-02-07T22:24:03.957Z,102460.53
2023-02-07T22:26:32.708Z,102463.16
2023-02-07T22:28:59.903Z,102458.75
2023-02-07T22:31:30.001Z,102451.19
2023-02-07T22:34:04.896Z,102453.91
2023-02-07T22:36:35.585Z,102453.72
2023-02-07T22:39:05.046Z,102453.06
2023-02-07T22:41:33.217Z,102461.81
2023-02-07T22:44:01.396Z,102471.22
2023-02-07T22:46:29.202Z,102466.16
2023-02-07T22:48:56.886Z,102475.53
2023-02-07T22:51:32.305Z,102467.84
2023-02-07T22:54:05.473Z,102478.72
2023-02-07T22:56:36.238Z,102477.22
2023-02-07T22:59:03.808Z,102479.59
2023-02-07T23:01:34.615Z,102476.31
2023-02-07T23:04:04.000Z,102469.56
2023-02-07T23:06:32.659Z,102478.13
2023-02-07T23:09:01.488Z,102468.69
2023-02-07T23:11:28.537Z,102475.53
2023-02-07T23:13:55.535Z,102461.88
2023-02-07T23:16:25.293Z,102466.00
2023-02-07T23:18:56.261Z,102455.78
2023-02-07T23:21:26.093Z,102449.94
2023-02-07T23:23:53.542Z,102452.56
2023-02-07T23:26:23.362Z,102449.81
2023-02-07T23:28:52.080Z,102455.00
2023-02-07T23:31:23.746Z,102450.78
2023-02-07T23:33:52.405Z,102453.44
2023-02-07T23:36:20.092Z,102461.13
2023-02-07T23:38:47.981Z,102466.19
2023-02-07T23:41:15.776Z,102473.25
2023-02-07T23:43:43.289Z,102479.19
2023-02-07T23:46:10.823Z,102491.28
2023-02-07T23:48:39.066Z,102494.63
2023-02-07T23:51:07.097Z,102487.94
2023-02-07T23:53:34.725Z,102483.50
2023-02-07T23:56:03.753Z,102462.25
2023-02-07T23:58:31.590Z,102463.91
